Terminal Aerodrome Forecast
Issued by NWS

Home | Current Version | Previous Version | Text Only | Print | Product List | Glossary On
Versions: 1 2 3 4 5 6 7 8 9 10 11 12 13 14 15
502
FTUS42 KTAE 231932 AAA
TAFECP
TAF AMD
KECP 231932Z 2320/2418 27011KT P6SM BKN025
     FM232200 31012KT P6SM BKN025
     FM240000 32007KT P6SM BKN040=

USA.gov is the U.S. government's official web portal to all federal, state and local government web resources and services.